sensor_id;sensor_type;location;lat;lon;timestamp;P1;durP1;ratioP1;P2;durP2;ratioP2
37895;SDS011;23733;53.254;10.430;2024-02-21T00:00:20;22.47;;;10.60;;
37895;SDS011;23733;53.254;10.430;2024-02-21T00:02:46;24.93;;;10.17;;
37895;SDS011;23733;53.254;10.430;2024-02-21T00:05:12;23.10;;;9.23;;
37895;SDS011;23733;53.254;10.430;2024-02-21T00:07:39;24.83;;;9.97;;
37895;SDS011;23733;53.254;10.430;2024-02-21T00:10:05;25.33;;;10.60;;
37895;SDS011;23733;53.254;10.430;2024-02-21T00:12:31;28.63;;;11.47;;
37895;SDS011;23733;53.254;10.430;2024-02-21T00:14:58;24.33;;;9.93;;
37895;SDS011;23733;53.254;10.430;2024-02-21T00:17:24;24.73;;;10.40;;
37895;SDS011;23733;53.254;10.430;2024-02-21T00:19:51;21.70;;;10.30;;
37895;SDS011;23733;53.254;10.430;2024-02-21T00:22:17;21.03;;;9.43;;
37895;SDS011;23733;53.254;10.430;2024-02-21T00:24:44;21.63;;;9.97;;
37895;SDS011;23733;53.254;10.430;2024-02-21T00:27:10;25.67;;;9.67;;
37895;SDS011;23733;53.254;10.430;2024-02-21T00:29:36;22.33;;;9.83;;
37895;SDS011;23733;53.254;10.430;2024-02-21T00:32:03;22.47;;;9.83;;
37895;SDS011;23733;53.254;10.430;2024-02-21T00:34:29;27.83;;;10.03;;
37895;SDS011;23733;53.254;10.430;2024-02-21T00:36:55;22.77;;;8.93;;
37895;SDS011;23733;53.254;10.430;2024-02-21T00:39:22;18.57;;;9.13;;
37895;SDS011;23733;53.254;10.430;2024-02-21T00:41:48;18.77;;;9.50;;
37895;SDS011;23733;53.254;10.430;2024-02-21T00:44:15;23.23;;;9.30;;
37895;SDS011;23733;53.254;10.430;2024-02-21T00:46:41;20.47;;;9.27;;
37895;SDS011;23733;53.254;10.430;2024-02-21T00:49:07;19.47;;;9.33;;
37895;SDS011;23733;53.254;10.430;2024-02-21T00:51:33;21.63;;;9.30;;
37895;SDS011;23733;53.254;10.430;2024-02-21T00:54:00;20.27;;;8.93;;
37895;SDS011;23733;53.254;10.430;2024-02-21T00:56:27;22.03;;;9.50;;
37895;SDS011;23733;53.254;10.430;2024-02-21T00:58:53;21.07;;;9.50;;
37895;SDS011;23733;53.254;10.430;2024-02-21T01:01:25;23.00;;;9.83;;
37895;SDS011;23733;53.254;10.430;2024-02-21T01:03:52;19.60;;;9.53;;
37895;SDS011;23733;53.254;10.430;2024-02-21T01:06:21;16.90;;;9.30;;
37895;SDS011;23733;53.254;10.430;2024-02-21T01:08:48;16.70;;;9.20;;
37895;SDS011;23733;53.254;10.430;2024-02-21T01:11:15;17.03;;;9.07;;
37895;SDS011;23733;53.254;10.430;2024-02-21T01:13:41;24.37;;;9.83;;
37895;SDS011;23733;53.254;10.430;2024-02-21T01:16:08;16.60;;;9.67;;
37895;SDS011;23733;53.254;10.430;2024-02-21T01:18:34;23.63;;;10.03;;
37895;SDS011;23733;53.254;10.430;2024-02-21T01:21:01;27.07;;;11.00;;
37895;SDS011;23733;53.254;10.430;2024-02-21T01:23:27;20.80;;;9.53;;
37895;SDS011;23733;53.254;10.430;2024-02-21T01:25:53;18.10;;;9.70;;
37895;SDS011;23733;53.254;10.430;2024-02-21T01:28:20;20.20;;;10.17;;
37895;SDS011;23733;53.254;10.430;2024-02-21T01:30:47;21.40;;;9.50;;
37895;SDS011;23733;53.254;10.430;2024-02-21T01:33:13;19.43;;;10.00;;
37895;SDS011;23733;53.254;10.430;2024-02-21T01:35:40;19.83;;;9.83;;
37895;SDS011;23733;53.254;10.430;2024-02-21T01:38:06;21.67;;;9.87;;
37895;SDS011;23733;53.254;10.430;2024-02-21T01:40:32;22.03;;;11.17;;
37895;SDS011;23733;53.254;10.430;2024-02-21T01:42:59;19.27;;;9.83;;
37895;SDS011;23733;53.254;10.430;2024-02-21T01:45:25;18.83;;;10.70;;
37895;SDS011;23733;53.254;10.430;2024-02-21T01:47:51;20.53;;;10.23;;
37895;SDS011;23733;53.254;10.430;2024-02-21T01:50:18;25.07;;;11.03;;
37895;SDS011;23733;53.254;10.430;2024-02-21T01:52:45;24.23;;;10.63;;
37895;SDS011;23733;53.254;10.430;2024-02-21T01:55:13;33.00;;;11.73;;
37895;SDS011;23733;53.254;10.430;2024-02-21T01:57:40;21.93;;;11.73;;
37895;SDS011;23733;53.254;10.430;2024-02-21T02:00:07;19.97;;;11.00;;
37895;SDS011;23733;53.254;10.430;2024-02-21T02:02:34;29.70;;;12.20;;
37895;SDS011;23733;53.254;10.430;2024-02-21T02:05:00;22.13;;;11.00;;
37895;SDS011;23733;53.254;10.430;2024-02-21T02:07:27;23.80;;;11.20;;
37895;SDS011;23733;53.254;10.430;2024-02-21T02:09:53;25.53;;;12.50;;
37895;SDS011;23733;53.254;10.430;2024-02-21T02:12:20;27.83;;;12.27;;
37895;SDS011;23733;53.254;10.430;2024-02-21T02:14:46;23.70;;;10.80;;
37895;SDS011;23733;53.254;10.430;2024-02-21T02:17:12;20.80;;;11.23;;
37895;SDS011;23733;53.254;10.430;2024-02-21T02:19:39;25.90;;;12.90;;
37895;SDS011;23733;53.254;10.430;2024-02-21T02:22:09;20.87;;;11.47;;
37895;SDS011;23733;53.254;10.430;2024-02-21T02:24:39;27.33;;;12.03;;
37895;SDS011;23733;53.254;10.430;2024-02-21T02:27:06;23.93;;;12.27;;
37895;SDS011;23733;53.254;10.430;2024-02-21T02:29:33;23.00;;;11.90;;
37895;SDS011;23733;53.254;10.430;2024-02-21T02:32:00;22.03;;;11.97;;
37895;SDS011;23733;53.254;10.430;2024-02-21T02:34:30;28.33;;;12.00;;
37895;SDS011;23733;53.254;10.430;2024-02-21T02:36:57;26.47;;;12.30;;
37895;SDS011;23733;53.254;10.430;2024-02-21T02:39:23;25.60;;;12.20;;
37895;SDS011;23733;53.254;10.430;2024-02-21T02:41:49;23.70;;;11.03;;
37895;SDS011;23733;53.254;10.430;2024-02-21T02:44:16;22.13;;;10.93;;
37895;SDS011;23733;53.254;10.430;2024-02-21T02:46:42;23.33;;;11.13;;
37895;SDS011;23733;53.254;10.430;2024-02-21T02:49:08;24.23;;;11.27;;
37895;SDS011;23733;53.254;10.430;2024-02-21T02:51:35;23.93;;;11.47;;
37895;SDS011;23733;53.254;10.430;2024-02-21T02:54:02;23.53;;;11.10;;
37895;SDS011;23733;53.254;10.430;2024-02-21T02:56:28;19.13;;;10.83;;
37895;SDS011;23733;53.254;10.430;2024-02-21T02:58:54;24.87;;;11.60;;
37895;SDS011;23733;53.254;10.430;2024-02-21T03:01:21;22.13;;;11.47;;
37895;SDS011;23733;53.254;10.430;2024-02-21T03:03:47;25.70;;;12.30;;
37895;SDS011;23733;53.254;10.430;2024-02-21T03:06:13;19.07;;;11.17;;
37895;SDS011;23733;53.254;10.430;2024-02-21T03:08:40;23.23;;;12.30;;
37895;SDS011;23733;53.254;10.430;2024-02-21T03:11:06;27.10;;;11.93;;
37895;SDS011;23733;53.254;10.430;2024-02-21T03:13:33;22.83;;;12.83;;
37895;SDS011;23733;53.254;10.430;2024-02-21T03:16:00;25.27;;;12.70;;
37895;SDS011;23733;53.254;10.430;2024-02-21T03:18:26;25.17;;;11.70;;
37895;SDS011;23733;53.254;10.430;2024-02-21T03:20:52;25.57;;;13.37;;
37895;SDS011;23733;53.254;10.430;2024-02-21T03:23:19;28.23;;;13.27;;
37895;SDS011;23733;53.254;10.430;2024-02-21T03:25:45;28.10;;;12.23;;
37895;SDS011;23733;53.254;10.430;2024-02-21T03:28:12;30.03;;;12.73;;
37895;SDS011;23733;53.254;10.430;2024-02-21T03:30:38;27.20;;;13.63;;
37895;SDS011;23733;53.254;10.430;2024-02-21T03:33:04;27.27;;;13.10;;
37895;SDS011;23733;53.254;10.430;2024-02-21T03:35:31;25.20;;;12.43;;
37895;SDS011;23733;53.254;10.430;2024-02-21T03:37:57;27.93;;;12.93;;
37895;SDS011;23733;53.254;10.430;2024-02-21T03:40:23;24.03;;;12.43;;
37895;SDS011;23733;53.254;10.430;2024-02-21T03:42:50;22.97;;;12.40;;
37895;SDS011;23733;53.254;10.430;2024-02-21T03:45:16;28.33;;;13.40;;
37895;SDS011;23733;53.254;10.430;2024-02-21T03:47:42;26.63;;;12.40;;
37895;SDS011;23733;53.254;10.430;2024-02-21T03:50:09;24.93;;;12.33;;
37895;SDS011;23733;53.254;10.430;2024-02-21T03:52:35;30.37;;;12.90;;
37895;SDS011;23733;53.254;10.430;2024-02-21T03:55:02;24.80;;;11.43;;
37895;SDS011;23733;53.254;10.430;2024-02-21T03:57:29;24.23;;;11.77;;
37895;SDS011;23733;53.254;10.430;2024-02-21T03:59:55;26.37;;;11.63;;
37895;SDS011;23733;53.254;10.430;2024-02-21T04:02:21;26.33;;;11.77;;
37895;SDS011;23733;53.254;10.430;2024-02-21T04:04:48;21.17;;;10.50;;
37895;SDS011;23733;53.254;10.430;2024-02-21T04:07:14;23.20;;;11.43;;
37895;SDS011;23733;53.254;10.430;2024-02-21T04:09:41;23.83;;;11.27;;
37895;SDS011;23733;53.254;10.430;2024-02-21T04:12:07;20.17;;;10.97;;
37895;SDS011;23733;53.254;10.430;2024-02-21T04:14:34;20.93;;;10.97;;
37895;SDS011;23733;53.254;10.430;2024-02-21T04:17:01;24.90;;;11.20;;
37895;SDS011;23733;53.254;10.430;2024-02-21T04:19:27;24.47;;;11.53;;
37895;SDS011;23733;53.254;10.430;2024-02-21T04:21:53;24.77;;;11.60;;
37895;SDS011;23733;53.254;10.430;2024-02-21T04:24:20;24.70;;;11.33;;
37895;SDS011;23733;53.254;10.430;2024-02-21T04:26:46;22.87;;;11.30;;
37895;SDS011;23733;53.254;10.430;2024-02-21T04:29:12;23.03;;;11.37;;
37895;SDS011;23733;53.254;10.430;2024-02-21T04:31:39;21.33;;;11.53;;
37895;SDS011;23733;53.254;10.430;2024-02-21T04:34:06;24.13;;;11.03;;
37895;SDS011;23733;53.254;10.430;2024-02-21T04:36:32;23.83;;;11.60;;
37895;SDS011;23733;53.254;10.430;2024-02-21T04:38:58;28.50;;;11.40;;
37895;SDS011;23733;53.254;10.430;2024-02-21T04:41:25;27.23;;;11.77;;
37895;SDS011;23733;53.254;10.430;2024-02-21T04:43:51;25.17;;;10.97;;
37895;SDS011;23733;53.254;10.430;2024-02-21T04:46:18;21.63;;;10.97;;
37895;SDS011;23733;53.254;10.430;2024-02-21T04:48:44;22.53;;;11.17;;
37895;SDS011;23733;53.254;10.430;2024-02-21T04:51:11;22.63;;;12.17;;
37895;SDS011;23733;53.254;10.430;2024-02-21T04:53:39;20.13;;;10.77;;
37895;SDS011;23733;53.254;10.430;2024-02-21T04:56:05;22.20;;;11.43;;
37895;SDS011;23733;53.254;10.430;2024-02-21T04:58:32;22.37;;;11.40;;
37895;SDS011;23733;53.254;10.430;2024-02-21T05:00:58;19.97;;;10.43;;
37895;SDS011;23733;53.254;10.430;2024-02-21T05:03:24;22.10;;;11.40;;
37895;SDS011;23733;53.254;10.430;2024-02-21T05:05:51;23.07;;;11.30;;
37895;SDS011;23733;53.254;10.430;2024-02-21T05:08:17;20.90;;;11.07;;
37895;SDS011;23733;53.254;10.430;2024-02-21T05:10:43;20.17;;;10.83;;
37895;SDS011;23733;53.254;10.430;2024-02-21T05:13:10;21.20;;;11.17;;
37895;SDS011;23733;53.254;10.430;2024-02-21T05:15:36;20.13;;;11.57;;
37895;SDS011;23733;53.254;10.430;2024-02-21T05:18:03;21.03;;;10.77;;
37895;SDS011;23733;53.254;10.430;2024-02-21T05:20:29;22.50;;;11.97;;
37895;SDS011;23733;53.254;10.430;2024-02-21T05:22:55;21.57;;;9.87;;
37895;SDS011;23733;53.254;10.430;2024-02-21T05:25:22;19.87;;;10.97;;
37895;SDS011;23733;53.254;10.430;2024-02-21T05:27:50;20.23;;;10.43;;
37895;SDS011;23733;53.254;10.430;2024-02-21T05:30:22;22.33;;;10.80;;
37895;SDS011;23733;53.254;10.430;2024-02-21T05:32:48;19.53;;;10.30;;
37895;SDS011;23733;53.254;10.430;2024-02-21T05:35:14;20.30;;;10.10;;
37895;SDS011;23733;53.254;10.430;2024-02-21T05:37:41;19.43;;;9.97;;
37895;SDS011;23733;53.254;10.430;2024-02-21T05:40:07;21.73;;;10.20;;
37895;SDS011;23733;53.254;10.430;2024-02-21T05:42:34;19.73;;;10.50;;
37895;SDS011;23733;53.254;10.430;2024-02-21T05:45:00;17.93;;;10.37;;
37895;SDS011;23733;53.254;10.430;2024-02-21T05:47:28;17.40;;;9.57;;
37895;SDS011;23733;53.254;10.430;2024-02-21T05:49:54;18.93;;;10.10;;
37895;SDS011;23733;53.254;10.430;2024-02-21T05:52:21;21.43;;;9.73;;
37895;SDS011;23733;53.254;10.430;2024-02-21T05:54:47;19.47;;;9.67;;
37895;SDS011;23733;53.254;10.430;2024-02-21T05:57:16;16.60;;;9.53;;
37895;SDS011;23733;53.254;10.430;2024-02-21T05:59:44;18.83;;;10.00;;
37895;SDS011;23733;53.254;10.430;2024-02-21T06:02:11;19.37;;;9.47;;
37895;SDS011;23733;53.254;10.430;2024-02-21T06:04:39;15.63;;;9.10;;
37895;SDS011;23733;53.254;10.430;2024-02-21T06:07:05;14.20;;;8.43;;
37895;SDS011;23733;53.254;10.430;2024-02-21T06:09:32;13.67;;;8.77;;
37895;SDS011;23733;53.254;10.430;2024-02-21T06:11:58;13.87;;;9.17;;
37895;SDS011;23733;53.254;10.430;2024-02-21T06:14:24;21.70;;;10.20;;
37895;SDS011;23733;53.254;10.430;2024-02-21T06:16:52;15.97;;;9.90;;
37895;SDS011;23733;53.254;10.430;2024-02-21T06:19:20;14.60;;;9.27;;
37895;SDS011;23733;53.254;10.430;2024-02-21T06:21:47;21.00;;;9.87;;
37895;SDS011;23733;53.254;10.430;2024-02-21T06:24:13;16.40;;;8.53;;
37895;SDS011;23733;53.254;10.430;2024-02-21T06:26:40;17.50;;;8.40;;
37895;SDS011;23733;53.254;10.430;2024-02-21T06:29:06;15.77;;;9.00;;
37895;SDS011;23733;53.254;10.430;2024-02-21T06:31:36;14.83;;;8.60;;
37895;SDS011;23733;53.254;10.430;2024-02-21T06:34:02;15.67;;;9.00;;
37895;SDS011;23733;53.254;10.430;2024-02-21T06:36:30;15.13;;;8.17;;
37895;SDS011;23733;53.254;10.430;2024-02-21T06:38:56;11.87;;;7.87;;
37895;SDS011;23733;53.254;10.430;2024-02-21T06:41:22;15.50;;;7.87;;
37895;SDS011;23733;53.254;10.430;2024-02-21T06:43:49;13.70;;;8.00;;
37895;SDS011;23733;53.254;10.430;2024-02-21T06:46:23;12.13;;;7.33;;
37895;SDS011;23733;53.254;10.430;2024-02-21T06:48:51;13.33;;;8.17;;
37895;SDS011;23733;53.254;10.430;2024-02-21T06:51:17;16.40;;;8.53;;
37895;SDS011;23733;53.254;10.430;2024-02-21T06:53:44;12.13;;;6.60;;
37895;SDS011;23733;53.254;10.430;2024-02-21T06:56:10;12.20;;;7.67;;
37895;SDS011;23733;53.254;10.430;2024-02-21T06:58:36;12.67;;;7.93;;
37895;SDS011;23733;53.254;10.430;2024-02-21T07:01:03;13.50;;;7.90;;
37895;SDS011;23733;53.254;10.430;2024-02-21T07:03:29;11.73;;;6.87;;
37895;SDS011;23733;53.254;10.430;2024-02-21T07:05:56;13.13;;;7.30;;
37895;SDS011;23733;53.254;10.430;2024-02-21T07:08:22;10.17;;;6.83;;
37895;SDS011;23733;53.254;10.430;2024-02-21T07:10:52;10.67;;;6.77;;
37895;SDS011;23733;53.254;10.430;2024-02-21T07:13:30;10.83;;;6.77;;
37895;SDS011;23733;53.254;10.430;2024-02-21T07:16:16;10.83;;;6.50;;
37895;SDS011;23733;53.254;10.430;2024-02-21T07:18:45;8.20;;;5.80;;
37895;SDS011;23733;53.254;10.430;2024-02-21T07:21:12;8.07;;;5.90;;
37895;SDS011;23733;53.254;10.430;2024-02-21T07:23:41;9.10;;;5.93;;
37895;SDS011;23733;53.254;10.430;2024-02-21T07:26:07;8.33;;;5.77;;
37895;SDS011;23733;53.254;10.430;2024-02-21T07:28:34;7.27;;;5.47;;
37895;SDS011;23733;53.254;10.430;2024-02-21T07:31:00;8.50;;;5.83;;
37895;SDS011;23733;53.254;10.430;2024-02-21T07:33:26;7.23;;;5.20;;
37895;SDS011;23733;53.254;10.430;2024-02-21T07:35:53;12.87;;;5.30;;
37895;SDS011;23733;53.254;10.430;2024-02-21T07:38:19;8.70;;;5.23;;
37895;SDS011;23733;53.254;10.430;2024-02-21T07:40:45;7.17;;;5.00;;
37895;SDS011;23733;53.254;10.430;2024-02-21T07:43:11;9.00;;;5.10;;
37895;SDS011;23733;53.254;10.430;2024-02-21T07:45:38;7.97;;;5.27;;
37895;SDS011;23733;53.254;10.430;2024-02-21T07:48:25;11.00;;;4.90;;
37895;SDS011;23733;53.254;10.430;2024-02-21T07:51:16;8.27;;;5.03;;
37895;SDS011;23733;53.254;10.430;2024-02-21T07:53:44;9.80;;;5.80;;
37895;SDS011;23733;53.254;10.430;2024-02-21T07:56:21;7.77;;;5.53;;
37895;SDS011;23733;53.254;10.430;2024-02-21T07:59:19;7.00;;;4.87;;
37895;SDS011;23733;53.254;10.430;2024-02-21T08:02:30;7.67;;;5.30;;
37895;SDS011;23733;53.254;10.430;2024-02-21T08:05:02;7.20;;;5.47;;
37895;SDS011;23733;53.254;10.430;2024-02-21T08:08:09;7.33;;;5.00;;
37895;SDS011;23733;53.254;10.430;2024-02-21T08:10:54;8.67;;;5.17;;
37895;SDS011;23733;53.254;10.430;2024-02-21T08:13:21;6.93;;;5.00;;
37895;SDS011;23733;53.254;10.430;2024-02-21T08:15:47;6.13;;;4.27;;
37895;SDS011;23733;53.254;10.430;2024-02-21T08:18:33;7.50;;;5.57;;
37895;SDS011;23733;53.254;10.430;2024-02-21T08:33:46;7.73;;;4.67;;
37895;SDS011;23733;53.254;10.430;2024-02-21T08:55:00;6.23;;;4.83;;
37895;SDS011;23733;53.254;10.430;2024-02-21T09:07:19;7.33;;;5.33;;
37895;SDS011;23733;53.254;10.430;2024-02-21T09:13:43;7.67;;;4.87;;
37895;SDS011;23733;53.254;10.430;2024-02-21T09:16:58;7.33;;;5.27;;
37895;SDS011;23733;53.254;10.430;2024-02-21T09:38:39;6.87;;;5.10;;
37895;SDS011;23733;53.254;10.430;2024-02-21T09:41:45;7.60;;;5.30;;
37895;SDS011;23733;53.254;10.430;2024-02-21T09:44:17;9.50;;;5.83;;
37895;SDS011;23733;53.254;10.430;2024-02-21T09:48:32;10.10;;;5.53;;
37895;SDS011;23733;53.254;10.430;2024-02-21T09:51:01;6.97;;;5.47;;
37895;SDS011;23733;53.254;10.430;2024-02-21T10:09:39;15.80;;;8.63;;
37895;SDS011;23733;53.254;10.430;2024-02-21T10:28:07;14.97;;;8.93;;
37895;SDS011;23733;53.254;10.430;2024-02-21T10:36:44;18.00;;;9.57;;
37895;SDS011;23733;53.254;10.430;2024-02-21T10:39:56;17.37;;;8.40;;
37895;SDS011;23733;53.254;10.430;2024-02-21T10:42:23;15.03;;;8.33;;
37895;SDS011;23733;53.254;10.430;2024-02-21T10:47:54;13.77;;;7.97;;
37895;SDS011;23733;53.254;10.430;2024-02-21T10:50:27;15.90;;;8.53;;
37895;SDS011;23733;53.254;10.430;2024-02-21T10:53:12;15.80;;;7.63;;
37895;SDS011;23733;53.254;10.430;2024-02-21T10:55:46;15.40;;;7.20;;
37895;SDS011;23733;53.254;10.430;2024-02-21T10:58:20;14.40;;;7.37;;
37895;SDS011;23733;53.254;10.430;2024-02-21T11:00:46;13.53;;;7.53;;
37895;SDS011;23733;53.254;10.430;2024-02-21T11:03:18;13.40;;;7.17;;
37895;SDS011;23733;53.254;10.430;2024-02-21T11:05:44;13.93;;;6.80;;
37895;SDS011;23733;53.254;10.430;2024-02-21T11:11:17;11.67;;;5.70;;
37895;SDS011;23733;53.254;10.430;2024-02-21T11:14:20;8.57;;;5.87;;
37895;SDS011;23733;53.254;10.430;2024-02-21T11:17:23;10.57;;;6.33;;
37895;SDS011;23733;53.254;10.430;2024-02-21T11:23:36;12.03;;;6.17;;
37895;SDS011;23733;53.254;10.430;2024-02-21T11:29:10;13.00;;;6.77;;
37895;SDS011;23733;53.254;10.430;2024-02-21T11:31:59;11.83;;;6.27;;
37895;SDS011;23733;53.254;10.430;2024-02-21T11:35:30;9.50;;;6.20;;
37895;SDS011;23733;53.254;10.430;2024-02-21T11:41:26;18.63;;;8.70;;
37895;SDS011;23733;53.254;10.430;2024-02-21T11:50:03;15.20;;;7.00;;
37895;SDS011;23733;53.254;10.430;2024-02-21T11:59:03;17.10;;;7.83;;
37895;SDS011;23733;53.254;10.430;2024-02-21T12:01:55;14.07;;;8.47;;
37895;SDS011;23733;53.254;10.430;2024-02-21T12:07:39;16.40;;;9.07;;
37895;SDS011;23733;53.254;10.430;2024-02-21T12:10:13;15.03;;;8.80;;
37895;SDS011;23733;53.254;10.430;2024-02-21T12:13:13;15.87;;;8.93;;
37895;SDS011;23733;53.254;10.430;2024-02-21T12:15:49;15.00;;;9.23;;
37895;SDS011;23733;53.254;10.430;2024-02-21T12:18:18;19.00;;;9.63;;
37895;SDS011;23733;53.254;10.430;2024-02-21T12:20:48;15.17;;;9.63;;
37895;SDS011;23733;53.254;10.430;2024-02-21T12:26:17;16.90;;;10.70;;
37895;SDS011;23733;53.254;10.430;2024-02-21T12:29:15;20.90;;;9.43;;
37895;SDS011;23733;53.254;10.430;2024-02-21T12:31:45;18.77;;;10.10;;
37895;SDS011;23733;53.254;10.430;2024-02-21T12:34:11;15.40;;;9.10;;
37895;SDS011;23733;53.254;10.430;2024-02-21T12:36:44;14.97;;;9.13;;
37895;SDS011;23733;53.254;10.430;2024-02-21T12:39:25;13.97;;;8.90;;
37895;SDS011;23733;53.254;10.430;2024-02-21T12:42:00;16.33;;;9.03;;
37895;SDS011;23733;53.254;10.430;2024-02-21T12:45:21;15.90;;;8.33;;
37895;SDS011;23733;53.254;10.430;2024-02-21T12:48:10;14.83;;;8.40;;
37895;SDS011;23733;53.254;10.430;2024-02-21T12:50:52;13.67;;;7.90;;
37895;SDS011;23733;53.254;10.430;2024-02-21T12:53:19;17.10;;;8.20;;
37895;SDS011;23733;53.254;10.430;2024-02-21T12:56:11;13.33;;;7.27;;
37895;SDS011;23733;53.254;10.430;2024-02-21T12:58:42;13.63;;;7.23;;
37895;SDS011;23733;53.254;10.430;2024-02-21T13:01:51;12.57;;;6.97;;
37895;SDS011;23733;53.254;10.430;2024-02-21T13:04:20;15.57;;;7.30;;
37895;SDS011;23733;53.254;10.430;2024-02-21T13:10:10;13.73;;;6.87;;
37895;SDS011;23733;53.254;10.430;2024-02-21T13:26:23;10.77;;;5.60;;
37895;SDS011;23733;53.254;10.430;2024-02-21T13:28:57;12.60;;;5.90;;
37895;SDS011;23733;53.254;10.430;2024-02-21T13:32:10;10.73;;;5.90;;
37895;SDS011;23733;53.254;10.430;2024-02-21T13:34:54;11.07;;;6.00;;
37895;SDS011;23733;53.254;10.430;2024-02-21T13:41:14;8.87;;;5.37;;
37895;SDS011;23733;53.254;10.430;2024-02-21T13:50:21;9.73;;;5.53;;
37895;SDS011;23733;53.254;10.430;2024-02-21T13:53:34;12.10;;;5.40;;
37895;SDS011;23733;53.254;10.430;2024-02-21T13:56:55;9.47;;;4.60;;
37895;SDS011;23733;53.254;10.430;2024-02-21T14:00:13;8.30;;;4.60;;
37895;SDS011;23733;53.254;10.430;2024-02-21T14:03:21;7.77;;;4.07;;
37895;SDS011;23733;53.254;10.430;2024-02-21T14:05:56;8.33;;;4.53;;
37895;SDS011;23733;53.254;10.430;2024-02-21T14:09:07;7.70;;;3.70;;
37895;SDS011;23733;53.254;10.430;2024-02-21T14:14:43;7.73;;;3.97;;
37895;SDS011;23733;53.254;10.430;2024-02-21T14:20:31;8.33;;;3.50;;
37895;SDS011;23733;53.254;10.430;2024-02-21T14:27:02;7.27;;;3.50;;
37895;SDS011;23733;53.254;10.430;2024-02-21T14:33:40;5.77;;;2.80;;
37895;SDS011;23733;53.254;10.430;2024-02-21T14:40:06;6.83;;;3.30;;
37895;SDS011;23733;53.254;10.430;2024-02-21T14:43:16;8.57;;;3.00;;
37895;SDS011;23733;53.254;10.430;2024-02-21T14:46:23;6.30;;;2.67;;
37895;SDS011;23733;53.254;10.430;2024-02-21T14:54:57;6.50;;;2.40;;
37895;SDS011;23733;53.254;10.430;2024-02-21T15:01:07;6.50;;;2.30;;
37895;SDS011;23733;53.254;10.430;2024-02-21T15:04:16;4.03;;;2.23;;
37895;SDS011;23733;53.254;10.430;2024-02-21T15:07:39;5.50;;;2.60;;
37895;SDS011;23733;53.254;10.430;2024-02-21T15:10:54;4.47;;;2.40;;
37895;SDS011;23733;53.254;10.430;2024-02-21T15:13:26;6.07;;;2.53;;
37895;SDS011;23733;53.254;10.430;2024-02-21T15:16:46;3.67;;;2.20;;
37895;SDS011;23733;53.254;10.430;2024-02-21T15:19:33;4.97;;;2.20;;
37895;SDS011;23733;53.254;10.430;2024-02-21T15:22:09;4.70;;;1.97;;
37895;SDS011;23733;53.254;10.430;2024-02-21T15:25:10;3.80;;;2.20;;
37895;SDS011;23733;53.254;10.430;2024-02-21T15:27:58;4.80;;;2.30;;
37895;SDS011;23733;53.254;10.430;2024-02-21T15:33:28;4.93;;;2.13;;
37895;SDS011;23733;53.254;10.430;2024-02-21T15:36:14;3.80;;;2.30;;
37895;SDS011;23733;53.254;10.430;2024-02-21T15:38:59;5.53;;;2.07;;
37895;SDS011;23733;53.254;10.430;2024-02-21T15:42:06;3.70;;;1.90;;
37895;SDS011;23733;53.254;10.430;2024-02-21T15:44:47;3.63;;;2.17;;
37895;SDS011;23733;53.254;10.430;2024-02-21T15:51:12;4.30;;;2.10;;
37895;SDS011;23733;53.254;10.430;2024-02-21T15:53:53;5.33;;;2.23;;
37895;SDS011;23733;53.254;10.430;2024-02-21T15:56:39;4.93;;;2.60;;
37895;SDS011;23733;53.254;10.430;2024-02-21T16:00:02;4.37;;;2.47;;
37895;SDS011;23733;53.254;10.430;2024-02-21T16:05:56;4.37;;;2.20;;
37895;SDS011;23733;53.254;10.430;2024-02-21T16:08:33;3.83;;;2.30;;
37895;SDS011;23733;53.254;10.430;2024-02-21T16:17:20;5.07;;;2.57;;
37895;SDS011;23733;53.254;10.430;2024-02-21T16:20:07;6.90;;;2.80;;
37895;SDS011;23733;53.254;10.430;2024-02-21T16:25:54;4.93;;;2.40;;
37895;SDS011;23733;53.254;10.430;2024-02-21T16:28:43;6.33;;;2.70;;
37895;SDS011;23733;53.254;10.430;2024-02-21T16:31:11;6.80;;;2.60;;
37895;SDS011;23733;53.254;10.430;2024-02-21T16:33:38;5.20;;;2.70;;
37895;SDS011;23733;53.254;10.430;2024-02-21T16:39:13;6.87;;;2.87;;
37895;SDS011;23733;53.254;10.430;2024-02-21T16:41:40;5.60;;;2.90;;
37895;SDS011;23733;53.254;10.430;2024-02-21T16:44:07;7.07;;;2.73;;
37895;SDS011;23733;53.254;10.430;2024-02-21T16:46:34;7.83;;;2.80;;
37895;SDS011;23733;53.254;10.430;2024-02-21T16:49:01;5.50;;;3.10;;
37895;SDS011;23733;53.254;10.430;2024-02-21T16:51:34;4.37;;;2.67;;
37895;SDS011;23733;53.254;10.430;2024-02-21T16:54:00;5.27;;;3.20;;
37895;SDS011;23733;53.254;10.430;2024-02-21T16:56:38;7.70;;;3.30;;
37895;SDS011;23733;53.254;10.430;2024-02-21T16:59:26;10.37;;;4.20;;
37895;SDS011;23733;53.254;10.430;2024-02-21T17:05:16;5.60;;;2.97;;
37895;SDS011;23733;53.254;10.430;2024-02-21T17:07:58;6.97;;;3.17;;
37895;SDS011;23733;53.254;10.430;2024-02-21T17:10:35;8.10;;;3.00;;
37895;SDS011;23733;53.254;10.430;2024-02-21T17:13:07;5.70;;;2.50;;
37895;SDS011;23733;53.254;10.430;2024-02-21T17:21:55;6.40;;;2.70;;
37895;SDS011;23733;53.254;10.430;2024-02-21T17:24:21;5.10;;;3.10;;
37895;SDS011;23733;53.254;10.430;2024-02-21T17:26:48;8.17;;;2.90;;
37895;SDS011;23733;53.254;10.430;2024-02-21T17:29:15;6.33;;;3.47;;
37895;SDS011;23733;53.254;10.430;2024-02-21T17:31:41;6.67;;;3.33;;
37895;SDS011;23733;53.254;10.430;2024-02-21T17:34:15;8.07;;;3.27;;
37895;SDS011;23733;53.254;10.430;2024-02-21T17:36:48;7.93;;;3.30;;
37895;SDS011;23733;53.254;10.430;2024-02-21T17:39:30;12.20;;;3.60;;
37895;SDS011;23733;53.254;10.430;2024-02-21T17:42:21;6.67;;;3.53;;
37895;SDS011;23733;53.254;10.430;2024-02-21T17:45:10;6.70;;;3.40;;
37895;SDS011;23733;53.254;10.430;2024-02-21T17:47:38;7.70;;;4.80;;
37895;SDS011;23733;53.254;10.430;2024-02-21T17:50:07;9.70;;;5.20;;
37895;SDS011;23733;53.254;10.430;2024-02-21T17:52:46;6.80;;;4.37;;
37895;SDS011;23733;53.254;10.430;2024-02-21T17:55:14;8.20;;;4.23;;
37895;SDS011;23733;53.254;10.430;2024-02-21T18:01:03;8.67;;;4.83;;
37895;SDS011;23733;53.254;10.430;2024-02-21T18:03:40;5.87;;;3.97;;
37895;SDS011;23733;53.254;10.430;2024-02-21T18:06:18;6.83;;;4.03;;
37895;SDS011;23733;53.254;10.430;2024-02-21T18:08:47;7.97;;;4.10;;
37895;SDS011;23733;53.254;10.430;2024-02-21T18:11:21;9.77;;;4.37;;
37895;SDS011;23733;53.254;10.430;2024-02-21T18:14:10;7.50;;;4.20;;
37895;SDS011;23733;53.254;10.430;2024-02-21T18:17:01;9.23;;;4.47;;
37895;SDS011;23733;53.254;10.430;2024-02-21T18:19:45;9.40;;;4.30;;
37895;SDS011;23733;53.254;10.430;2024-02-21T18:22:59;6.83;;;3.70;;
37895;SDS011;23733;53.254;10.430;2024-02-21T18:25:45;7.67;;;3.90;;
37895;SDS011;23733;53.254;10.430;2024-02-21T18:28:24;7.87;;;4.07;;
37895;SDS011;23733;53.254;10.430;2024-02-21T18:31:10;8.57;;;3.90;;
37895;SDS011;23733;53.254;10.430;2024-02-21T18:33:37;6.60;;;3.50;;
37895;SDS011;23733;53.254;10.430;2024-02-21T18:36:10;4.27;;;3.07;;
37895;SDS011;23733;53.254;10.430;2024-02-21T18:38:36;5.47;;;3.43;;
37895;SDS011;23733;53.254;10.430;2024-02-21T18:41:03;7.40;;;3.47;;
37895;SDS011;23733;53.254;10.430;2024-02-21T18:43:29;9.03;;;3.60;;
37895;SDS011;23733;53.254;10.430;2024-02-21T18:45:57;9.07;;;3.53;;